Latest Weather Observations for Tamworth Airport

IDN60801

Issued at 1:03 am EDT Saturday 21 January 2017 (issued every 30 minutes, with the page automatically refreshed every 10 minutes)

About weather observations | Map of weather stations | Latest weather observations for NSW | Other Formats
Station Details ID: 055325 Name: TAMWORTH AIRPORT AWS Lat: -31.07 Lon: 150.84 Height: 394.9 m
Data from the previous 72 hours. | See also: Recent months at Tamworth Airport
Date/Time
EDT
Temp
°C
App
Temp
°C
Dew
Point
°C
Rel
Hum
%
Delta-T
°C
Wind Press
QNH
hPa
Press
MSL
hPa
Rain since
9am
mm
Dir  Spd
km/h
Gust
km/h
Spd
kts
Gust
kts
21/01:00am 23.7 26.4 21.4 87 1.5 WNW 9 15 5 8 1005.1 1002.7 13.6
21/12:57am 23.7 26.4 21.4 87 1.5 WNW 9 13 5 7 1005.1 1002.7 13.6
21/12:43am 23.7 25.5 21.2 86 1.7 NW 13 15 7 8 1005.0 1002.6 13.6
21/12:30am 24.0 25.4 21.1 84 1.9 W 15 20 8 11 1005.1 1002.7 13.0
21/12:00am 24.0 25.0 21.1 84 1.9 WNW 17 26 9 14 1004.8 1002.4 13.0
 
Date/Time
EDT
Temp
°C
App
Temp
°C
Dew
Point
°C
Rel
Hum
%
Delta-T
°C
Wind Press
QNH
hPa
Press
MSL
hPa
Rain since
9am
mm
Dir  Spd
km/h
Gust
km/h
Spd
kts
Gust
kts
20/11:30pm 24.3 25.4 21.2 83 2.1 NW 17 20 9 11 1004.1 1001.8 12.8
20/11:00pm 23.9 25.3 21.0 84 1.9 NNW 15 17 8 9 1003.7 1001.4 12.8
20/10:30pm 23.5 24.3 20.6 84 1.9 NNW 17 20 9 11 1003.7 1001.4 12.8
20/10:00pm 23.5 23.6 20.4 83 2.1 N 20 28 11 15 1003.6 1001.2 12.8
20/09:30pm 24.4 26.0 21.5 84 1.9 N 15 20 8 11 1003.5 1001.1 12.8
20/09:00pm 24.1 28.0 21.8 87 1.6 SSW 4 13 2 7 1003.2 1000.8 12.8
20/08:54pm 24.0 26.1 21.7 87 1.5 SSW 13 17 7 9 1003.3 1000.9 12.8
20/08:33pm 24.2 27.4 21.7 86 1.7 NNW 7 9 4 5 1002.6 1000.2 12.2
20/08:30pm 24.1 27.3 21.6 86 1.7 NNW 7 13 4 7 1002.6 1000.2 11.8
20/08:00pm 24.3 26.2 21.4 84 2.0 NNW 13 20 7 11 1002.5 1000.1 11.4
20/07:45pm 24.4 26.8 21.5 84 1.9 NW 11 13 6 7 1002.6 1000.2 11.4
20/07:30pm 24.6 25.9 20.9 80 2.5 N 15 20 8 11 1002.1 999.7 11.2
20/07:26pm 24.9 25.8 20.8 78 2.7 N 17 20 9 11 1002.1 999.7 11.0
20/07:00pm 25.8 26.2 21.0 75 3.2 N 20 28 11 15 1001.4 999.1 10.4
20/06:30pm 26.0 26.5 21.2 75 3.2 N 20 28 11 15 1001.5 999.2 10.4
20/06:00pm 25.7 25.1 20.5 73 3.5 N 24 32 13 17 1001.8 999.5 10.4
20/05:30pm 25.9 25.7 21.3 76 3.1 N 24 30 13 16 1001.9 999.6 10.4
20/05:00pm 24.4 24.4 20.9 81 2.3 N 22 30 12 16 1002.1 999.7 10.4
20/04:30pm 23.1 23.6 20.8 87 1.5 N 19 24 10 13 1002.5 1000.1 10.4
20/04:00pm 22.2 22.5 20.3 89 1.2 NNE 19 26 10 14 1003.1 1000.7 10.4
20/03:30pm 22.3 22.6 20.4 89 1.2 N 19 26 10 14 1004.1 1001.8 9.2
20/03:19pm 22.3 22.5 20.2 88 1.4 NW 19 26 10 14 1003.8 1001.5 8.6
20/03:03pm 22.0 19.4 19.9 88 1.4 W 33 52 18 28 1003.7 1001.4 7.8
20/03:00pm 22.0 18.3 19.9 88 1.4 W 39 54 21 29 1003.9 1001.6 7.6
20/02:45pm 22.4 19.4 19.0 81 2.2 WSW 33 52 18 28 1004.2 1001.9 1.8
20/02:44pm 22.6 19.7 18.8 79 2.4 WSW 32 52 17 28 1004.0 1001.7 1.2
20/02:39pm 23.5 19.8 17.0 67 4.1 WNW 32 46 17 25 1003.0 1000.6 0.8
20/02:30pm 28.5 26.1 20.0 60 5.6 NW 32 44 17 24 1002.2 999.8 0.4
20/02:06pm 31.5 28.4 18.5 46 8.5 NNW 32 50 17 27 1001.4 999.1 0.0
20/02:00pm 31.3 28.0 18.3 46 8.5 NNW 33 48 18 26 1001.6 999.3 0.0
20/01:30pm 31.7 28.0 18.3 45 8.8 NNW 35 50 19 27 1002.3 999.9 0.0
20/01:18pm 31.3 27.0 17.9 44 8.7 NNW 37 57 20 31 1002.4 1000.0 0.0
20/01:00pm 31.4 26.8 18.0 44 8.8 NNW 39 52 21 28 1002.9 1000.5 0.0
20/12:35pm 30.3 26.9 19.0 50 7.4 NNW 35 54 19 29 1003.5 1001.1 0.0
20/12:30pm 30.3 28.0 20.5 55 6.6 NNW 33 48 18 26 1003.8 1001.5 0.0
20/12:00pm 29.6 25.8 19.0 53 7.0 N 37 48 20 26 1004.3 1002.0 0.0
20/11:43am 28.6 25.8 19.5 58 6.0 N 33 52 18 28 1004.6 1002.3 0.0
20/11:30am 25.5 21.9 19.4 69 4.0 N 37 52 20 28 1004.8 1002.4 0.0
20/11:15am 28.7 24.1 17.9 52 7.0 N 39 57 21 31 1005.0 1002.6 0.0
20/11:00am 29.9 24.7 18.3 49 7.6 N 43 56 23 30 1005.1 1002.7 0.0
20/10:30am 29.9 26.3 19.3 53 7.0 N 37 52 20 28 1005.6 1003.2 0.0
20/10:07am 28.4 24.8 18.5 55 6.4 N 35 57 19 31 1005.8 1003.4 0.0
20/10:00am 27.3 24.0 18.3 58 5.8 N 33 48 18 26 1006.0 1003.7 0.0
20/09:30am 27.9 23.8 18.3 56 6.2 N 37 48 20 26 1006.4 1004.1 0.0
20/09:12am 26.8 23.3 17.8 57 5.8 N 33 56 18 30 1006.8 1004.5 0.0
20/09:00am 26.9 23.8 18.5 60 5.5 N 32 44 17 24 1007.2 1004.9 0.0
20/08:30am 26.1 22.6 18.0 61 5.2 N 33 46 18 25 1007.1 1004.8 0.0
20/08:26am 26.1 23.5 17.7 60 5.4 N 28 46 15 25 1007.2 1004.9 0.0
20/08:00am 26.3 23.2 18.4 61 5.1 N 32 44 17 24 1007.5 1005.1 0.0
20/07:56am 26.0 23.4 17.9 61 5.2 N 28 44 15 24 1007.3 1005.0 0.0
20/07:30am 25.1 25.6 18.3 66 4.4 N 13 28 7 15 1007.3 1005.0 0.0
20/07:00am 22.9 25.8 18.2 75 3.0 CALM 0 0 0 0 1007.0 1004.7 0.0
20/06:30am 22.3 25.2 18.1 77 2.7 CALM 0 0 0 0 1006.6 1004.3 0.0
20/06:00am 21.9 23.3 17.9 78 2.5 NW 7 7 4 4 1006.7 1004.4 0.0
20/05:30am 21.9 24.7 17.9 78 2.5 CALM 0 0 0 0 1006.9 1004.6 0.0
20/05:00am 21.7 24.1 17.1 75 2.9 CALM 0 6 0 3 1006.7 1004.4 0.0
20/04:30am 21.9 24.3 17.1 74 3.0 CALM 0 0 0 0 1006.6 1004.3 0.0
20/04:00am 22.1 22.7 16.8 72 3.3 SSE 9 11 5 6 1007.1 1004.8 0.0
20/03:30am 23.4 24.2 17.2 68 3.9 SSE 9 11 5 6 1007.7 1005.3 0.0
20/03:00am 23.6 24.3 17.1 67 4.1 ESE 9 13 5 7 1007.9 1005.5 0.0
20/02:30am 23.6 23.9 16.9 66 4.2 E 11 15 6 8 1008.1 1005.7 0.0
20/02:00am 23.7 23.5 16.7 65 4.4 E 13 17 7 9 1008.5 1006.2 0.0
20/01:30am 23.9 23.8 16.9 65 4.4 E 13 17 7 9 1008.7 1006.4 0.0
20/01:00am 24.4 23.9 16.9 63 4.7 E 15 19 8 10 1009.0 1006.7 0.0
20/12:30am 24.6 24.1 16.8 62 4.9 ENE 15 19 8 10 1008.9 1006.6 0.0
20/12:00am 24.6 24.4 16.8 62 4.9 E 13 17 7 9 1009.2 1006.9 0.0
 
Date/Time
EDT
Temp
°C
App
Temp
°C
Dew
Point
°C
Rel
Hum
%
Delta-T
°C
Wind Press
QNH
hPa
Press
MSL
hPa
Rain since
9am
mm
Dir  Spd
km/h
Gust
km/h
Spd
kts
Gust
kts
19/11:30pm 24.8 23.9 16.8 61 5.0 E 17 22 9 12 1009.1 1006.8 0.0
19/11:00pm 24.8 23.9 16.8 61 5.0 ESE 17 26 9 14 1009.0 1006.7 0.0
19/10:30pm 25.0 23.1 16.7 60 5.2 ESE 22 28 12 15 1008.9 1006.6 0.0
19/10:00pm 25.7 23.7 16.5 56 5.8 ESE 22 32 12 17 1008.8 1006.5 0.0
19/09:30pm 25.1 23.6 16.8 60 5.2 SE 20 26 11 14 1008.5 1006.2 0.0
19/09:00pm 25.8 24.0 16.9 58 5.6 SE 22 28 12 15 1008.1 1005.7 0.0
19/08:30pm 26.9 24.9 17.4 56 6.1 SE 24 30 13 16 1007.7 1005.3 0.0
19/08:00pm 28.4 25.3 17.6 52 7.0 SE 30 39 16 21 1007.5 1005.1 0.0
19/07:30pm 30.2 28.4 16.9 44 8.5 SE 22 32 12 17 1007.1 1004.8 0.0
19/07:00pm 32.4 29.4 15.8 36 10.5 SE 26 33 14 18 1006.8 1004.5 0.0
19/06:30pm 34.2 32.8 15.6 32 11.8 SSE 17 22 9 12 1006.5 1004.2 0.0
19/06:00pm 34.9 33.9 15.7 31 12.3 SSE 15 24 8 13 1006.5 1004.2 0.0
19/05:30pm 35.0 33.5 15.3 30 12.5 SE 17 26 9 14 1006.6 1004.3 0.0
19/05:00pm 35.2 34.2 15.5 30 12.6 SSE 15 20 8 11 1006.8 1004.5 0.0
19/04:30pm 35.3 33.7 16.1 32 12.3 SE 19 26 10 14 1007.2 1004.9 0.0
19/04:00pm 34.9 33.4 16.7 34 11.8 SSE 20 26 11 14 1007.8 1005.4 0.0
19/03:30pm 34.7 34.5 15.6 32 12.2 SSW 11 20 6 11 1008.3 1006.0 0.0
19/03:00pm 35.7 37.5 17.4 33 12.0 WNW 4 17 2 9 1008.7 1006.4 0.0
19/02:30pm 33.9 34.1 16.7 35 11.1 SSW 11 22 6 12 1009.0 1006.7 0.0
19/02:00pm 33.8 33.6 17.5 38 10.6 S 15 28 8 15 1009.4 1007.1 0.0
19/01:30pm 32.8 32.6 16.6 38 10.4 E 13 19 7 10 1009.8 1007.5 0.0
19/01:00pm 32.8 32.5 17.4 39 10.0 SSE 15 26 8 14 1010.4 1008.0 0.0
19/12:30pm 31.9 31.8 17.0 41 9.6 SE 13 20 7 11 1011.0 1008.7 0.0
19/12:00pm 31.3 30.5 17.2 42 9.1 SE 17 24 9 13 1011.2 1008.9 0.0
19/11:30am 30.2 29.3 15.9 42 9.0 SE 15 24 8 13 1011.5 1009.2 0.0
19/11:00am 29.9 29.1 17.0 45 8.3 ESE 17 26 9 14 1012.0 1009.7 0.0
19/10:30am 29.1 27.7 17.0 48 7.7 ESE 20 30 11 16 1012.1 1009.8 0.0
19/10:00am 27.7 27.0 17.3 53 6.6 SE 17 26 9 14 1012.4 1010.1 0.0
19/09:30am 28.0 27.2 18.1 55 6.4 ESE 19 26 10 14 1012.6 1010.3 0.0
19/09:00am 26.2 25.1 17.8 60 5.4 ESE 20 30 11 16 1012.8 1010.5 3.2
19/08:30am 24.9 23.9 17.6 64 4.6 ESE 19 24 10 13 1012.6 1010.3 3.2
19/08:00am 22.9 22.0 17.8 73 3.2 SE 19 24 10 13 1012.5 1010.2 3.2
19/07:30am 22.7 22.1 17.6 73 3.2 SE 17 24 9 13 1012.3 1010.0 3.2
19/07:00am 21.9 21.8 17.9 78 2.5 SSE 15 20 8 11 1012.0 1009.7 3.2
19/06:30am 21.0 20.8 17.6 81 2.1 SSE 15 19 8 10 1011.7 1009.4 3.2
19/06:00am 20.9 20.0 17.7 82 2.0 SSE 19 22 10 12 1011.4 1009.1 3.2
19/05:30am 21.1 20.3 18.1 83 1.9 SSE 19 24 10 13 1011.0 1008.7 3.2
19/05:00am 21.2 20.5 18.2 83 1.9 SSE 19 22 10 12 1010.6 1008.3 3.2
19/04:30am 21.1 20.7 18.1 83 1.9 SSE 17 20 9 11 1010.3 1007.9 3.2
19/04:00am 20.9 21.3 18.1 84 1.8 SSE 13 17 7 9 1010.4 1008.0 3.2
19/03:30am 21.5 20.9 18.5 83 1.9 SE 19 24 10 13 1010.3 1007.9 3.2
19/03:00am 21.4 21.3 18.8 85 1.7 SSE 17 20 9 11 1010.5 1008.2 3.2
19/02:30am 21.2 21.5 18.8 86 1.5 SSE 15 19 8 10 1010.5 1008.2 3.2
19/02:00am 21.5 21.6 19.1 86 1.5 SSE 17 20 9 11 1010.8 1008.5 3.2
19/01:30am 21.8 22.0 19.4 86 1.6 SSE 17 20 9 11 1011.2 1008.9 3.2
19/01:00am 22.1 22.8 19.6 86 1.6 SSE 15 19 8 10 1011.3 1009.0 3.2
19/12:30am 22.1 22.8 19.6 86 1.6 SSE 15 19 8 10 1011.9 1009.6 3.2
19/12:00am 22.4 22.8 19.8 85 1.7 SSE 17 20 9 11 1012.3 1010.0 3.2
 
Date/Time
EDT
Temp
°C
App
Temp
°C
Dew
Point
°C
Rel
Hum
%
Delta-T
°C
Wind Press
QNH
hPa
Press
MSL
hPa
Rain since
9am
mm
Dir  Spd
km/h
Gust
km/h
Spd
kts
Gust
kts
18/11:30pm 23.0 25.2 20.5 86 1.6 SSE 9 13 5 7 1012.9 1010.6 3.2
18/11:00pm 23.2 24.8 20.7 86 1.7 SSE 13 17 7 9 1013.1 1010.8 3.2
18/10:30pm 23.5 25.6 21.0 86 1.7 S 11 13 6 7 1013.2 1010.9 3.2
18/10:00pm 23.5 26.4 21.0 86 1.7 WSW 7 9 4 5 1012.9 1010.6 3.0
18/09:30pm 23.7 26.5 20.8 84 1.9 E 7 13 4 7 1013.2 1010.9 3.0
18/09:00pm 23.6 24.9 20.9 85 1.8 ENE 15 20 8 11 1012.9 1010.6 3.0
18/08:30pm 23.5 23.5 21.0 86 1.7 ESE 22 32 12 17 1012.8 1010.5 3.0
18/08:00pm 23.4 22.7 20.2 82 2.1 SSW 24 33 13 18 1012.2 1009.9 2.0
18/07:51pm 23.6 23.4 20.5 83 2.0 SSW 22 30 12 16 1012.2 1009.9 1.8
18/07:35pm 23.7 18.2 19.8 79 2.5 WSW 48 74 26 40 1011.3 1009.0 1.4
18/07:31pm 23.5 16.4 19.6 79 2.5 SW 56 74 30 40 1010.7 1008.4 1.2
18/07:30pm 23.3 15.8 19.2 78 2.7 SW 57 74 31 40 1010.3 1007.9 0.8
18/07:29pm 23.4 15.7 18.7 75 3.0 WSW 57 74 31 40 1009.9 1007.6 0.4
18/07:25pm 24.6 17.6 17.3 64 4.6 WSW 50 74 27 40 1009.7 1007.4 0.0
18/07:19pm 29.7 25.4 15.4 42 8.9 W 32 72 17 39 1009.6 1007.3 0.0
18/07:15pm 32.6 30.3 14.7 34 11.2 WNW 20 48 11 26 1009.4 1007.1 0.0
18/07:00pm 34.6 32.8 14.5 30 12.6 NW 17 20 9 11 1008.4 1006.1 0.0
18/06:30pm 35.1 33.3 14.4 29 13.0 NW 17 24 9 13 1008.1 1005.7 0.0
18/06:00pm 36.3 33.9 14.3 27 13.9 NW 20 32 11 17 1008.0 1005.6 0.0
18/05:30pm 36.9 34.6 14.2 25 14.3 NW 19 26 10 14 1007.8 1005.4 0.0
18/05:00pm 37.5 35.2 14.1 24 14.8 NW 19 28 10 15 1008.2 1005.8 0.0
18/04:30pm 37.8 35.4 14.4 25 14.8 WNW 20 32 11 17 1008.6 1006.3 0.0
18/04:00pm 37.8 34.6 13.1 23 15.4 WNW 22 32 12 17 1009.4 1007.1 0.0
18/03:30pm 36.0 32.2 12.3 24 14.5 NW 24 41 13 22 1010.3 1007.9 0.0
18/03:00pm 37.6 33.8 13.6 24 15.0 NW 26 35 14 19 1010.7 1008.4 0.0
18/02:30pm 36.7 34.2 14.1 26 14.2 NNW 20 33 11 18 1011.2 1008.9 0.0
18/02:00pm 35.8 32.7 13.3 26 13.9 WNW 22 39 12 21 1012.0 1009.7 0.0
18/01:30pm 35.6 33.0 13.1 25 13.9 NW 19 28 10 15 1012.6 1010.3 0.0
18/01:00pm 34.7 31.2 13.5 28 13.1 NW 24 35 13 19 1013.3 1011.0 0.0
18/12:30pm 34.4 32.2 14.8 30 12.3 NW 20 30 11 16 1013.4 1011.1 0.0
18/12:00pm 32.2 30.7 14.3 33 11.1 NW 15 22 8 12 1013.7 1011.4 0.0
18/11:30am 30.9 29.9 14.5 37 10.1 NW 13 20 7 11 1013.8 1011.5 0.0
18/11:00am 30.8 26.8 13.1 34 10.7 WNW 26 33 14 18 1014.4 1012.1 0.0
18/10:30am 31.0 28.0 13.7 34 10.6 W 22 35 12 19 1014.7 1012.4 0.0
18/10:00am 32.7 28.8 13.4 31 11.8 W 26 37 14 20 1014.8 1012.5 0.0
18/09:30am 32.3 29.8 14.0 33 11.3 WNW 20 28 11 15 1015.0 1012.8 0.0
18/09:27am 32.0 29.7 14.2 34 11.0 WNW 19 28 10 15 1015.0 1012.8 0.0
18/09:00am 31.1 29.4 14.7 37 10.2 NW 17 24 9 13 1014.9 1012.6 0.0
18/08:30am 30.2 28.1 15.1 40 9.4 NNW 20 28 11 15 1014.9 1012.6 0.0
18/08:00am 29.6 26.8 15.3 41 8.9 N 24 32 13 17 1014.7 1012.4 0.0
18/07:30am 28.4 26.0 15.3 45 8.1 N 22 32 12 17 1014.4 1012.1 0.0
18/07:00am 27.4 26.1 15.7 48 7.3 N 17 24 9 13 1014.0 1011.7 0.0
18/06:54am 26.9 26.3 15.6 50 7.0 N 13 20 7 11 1013.9 1011.6 0.0
18/06:30am 26.1 27.2 15.5 52 6.5 N 4 9 2 5 1013.8 1011.5 0.0
18/06:00am 24.5 25.1 15.7 58 5.4 NE 7 13 4 7 1013.2 1010.9 0.0
18/05:30am 25.2 25.2 15.2 54 6.1 N 9 11 5 6 1012.9 1010.6 0.0
18/05:00am 26.1 25.3 15.2 51 6.7 N 13 17 7 9 1012.6 1010.3 0.0
18/04:30am 24.7 24.6 15.9 58 5.4 NW 11 17 6 9 1012.3 1010.0 0.0
18/04:00am 22.7 23.3 15.8 65 4.2 SW 7 13 4 7 1012.1 1009.8 0.0
18/03:30am 25.1 25.2 15.4 55 6.0 N 9 11 5 6 1011.9 1009.6 0.0
18/03:00am 23.5 25.3 15.5 60 4.9 CALM 0 0 0 0 1012.1 1009.8 0.0
18/02:30am 23.9 24.5 15.7 60 5.0 ESE 7 9 4 5 1012.4 1010.1 0.0
18/02:00am 25.3 25.3 15.3 54 6.1 N 9 13 5 7 1012.4 1010.1 0.0
18/01:30am 25.3 25.2 15.9 56 5.8 WNW 11 13 6 7 1012.6 1010.3 0.0

Other Formats:

Comma delimited format used in spreadsheet applications
http://www.bom.gov.au/fwo/IDN60801/IDN60801.95762.axf

JavaScript Object Notation format (JSON) in row-major order
http://www.bom.gov.au/fwo/IDN60801/IDN60801.95762.json